sensor_id;sensor_type;location;lat;lon;timestamp;P1;durP1;ratioP1;P2;durP2;ratioP2
43819;SDS011;59678;52.476;6.046;2022-10-16T00:01:22;3.25;;;1.10;;
43819;SDS011;59678;52.476;6.046;2022-10-16T00:03:48;2.08;;;0.98;;
43819;SDS011;59678;52.476;6.046;2022-10-16T00:06:14;3.38;;;0.93;;
43819;SDS011;59678;52.476;6.046;2022-10-16T00:08:40;3.53;;;1.10;;
43819;SDS011;59678;52.476;6.046;2022-10-16T00:11:22;4.82;;;1.10;;
43819;SDS011;59678;52.476;6.046;2022-10-16T00:13:49;4.18;;;1.95;;
43819;SDS011;59678;52.476;6.046;2022-10-16T00:16:15;7.57;;;1.30;;
43819;SDS011;59678;52.476;6.046;2022-10-16T00:18:41;3.97;;;0.93;;
43819;SDS011;59678;52.476;6.046;2022-10-16T00:21:08;6.43;;;1.58;;
43819;SDS011;59678;52.476;6.046;2022-10-16T00:23:53;6.35;;;1.60;;
43819;SDS011;59678;52.476;6.046;2022-10-16T00:26:19;1.58;;;1.10;;
43819;SDS011;59678;52.476;6.046;2022-10-16T00:28:48;5.10;;;1.58;;
43819;SDS011;59678;52.476;6.046;2022-10-16T00:31:14;1.48;;;0.93;;
43819;SDS011;59678;52.476;6.046;2022-10-16T00:33:40;2.00;;;1.13;;
43819;SDS011;59678;52.476;6.046;2022-10-16T00:36:06;4.22;;;1.02;;
43819;SDS011;59678;52.476;6.046;2022-10-16T00:38:32;5.88;;;2.08;;
43819;SDS011;59678;52.476;6.046;2022-10-16T00:40:58;3.15;;;0.80;;
43819;SDS011;59678;52.476;6.046;2022-10-16T00:43:34;1.88;;;1.00;;
43819;SDS011;59678;52.476;6.046;2022-10-16T00:46:01;2.83;;;0.98;;
43819;SDS011;59678;52.476;6.046;2022-10-16T00:48:26;2.78;;;1.33;;
43819;SDS011;59678;52.476;6.046;2022-10-16T00:50:52;3.30;;;1.00;;
43819;SDS011;59678;52.476;6.046;2022-10-16T00:53:18;3.78;;;1.15;;
43819;SDS011;59678;52.476;6.046;2022-10-16T00:55:44;9.93;;;2.65;;
43819;SDS011;59678;52.476;6.046;2022-10-16T00:58:11;3.90;;;1.02;;
43819;SDS011;59678;52.476;6.046;2022-10-16T01:00:37;4.63;;;1.25;;
43819;SDS011;59678;52.476;6.046;2022-10-16T01:03:21;3.05;;;1.00;;
43819;SDS011;59678;52.476;6.046;2022-10-16T01:05:49;2.53;;;0.90;;
43819;SDS011;59678;52.476;6.046;2022-10-16T01:08:34;2.78;;;0.93;;
43819;SDS011;59678;52.476;6.046;2022-10-16T01:11:04;2.67;;;0.65;;
43819;SDS011;59678;52.476;6.046;2022-10-16T01:13:34;1.60;;;0.90;;
43819;SDS011;59678;52.476;6.046;2022-10-16T01:16:07;2.70;;;0.70;;
43819;SDS011;59678;52.476;6.046;2022-10-16T01:18:37;1.55;;;0.75;;
43819;SDS011;59678;52.476;6.046;2022-10-16T01:21:05;6.90;;;1.45;;
43819;SDS011;59678;52.476;6.046;2022-10-16T01:23:43;1.05;;;0.80;;
43819;SDS011;59678;52.476;6.046;2022-10-16T01:26:18;4.05;;;1.65;;
43819;SDS011;59678;52.476;6.046;2022-10-16T01:28:49;3.10;;;1.10;;
43819;SDS011;59678;52.476;6.046;2022-10-16T01:31:18;2.47;;;1.00;;
43819;SDS011;59678;52.476;6.046;2022-10-16T01:33:45;6.65;;;2.03;;
43819;SDS011;59678;52.476;6.046;2022-10-16T01:36:12;3.25;;;1.25;;
43819;SDS011;59678;52.476;6.046;2022-10-16T01:38:38;1.60;;;0.60;;
43819;SDS011;59678;52.476;6.046;2022-10-16T01:41:06;3.78;;;1.10;;
43819;SDS011;59678;52.476;6.046;2022-10-16T01:43:33;3.10;;;1.00;;
43819;SDS011;59678;52.476;6.046;2022-10-16T01:46:01;2.85;;;1.00;;
43819;SDS011;59678;52.476;6.046;2022-10-16T01:48:27;3.88;;;1.00;;
43819;SDS011;59678;52.476;6.046;2022-10-16T01:51:05;1.15;;;1.05;;
43819;SDS011;59678;52.476;6.046;2022-10-16T01:53:31;1.95;;;0.68;;
43819;SDS011;59678;52.476;6.046;2022-10-16T01:55:58;1.40;;;1.08;;
43819;SDS011;59678;52.476;6.046;2022-10-16T01:58:24;1.40;;;0.80;;
43819;SDS011;59678;52.476;6.046;2022-10-16T02:00:50;1.42;;;0.90;;
43819;SDS011;59678;52.476;6.046;2022-10-16T02:03:18;4.28;;;0.98;;
43819;SDS011;59678;52.476;6.046;2022-10-16T02:05:45;1.77;;;0.70;;
43819;SDS011;59678;52.476;6.046;2022-10-16T02:08:11;1.88;;;1.10;;
43819;SDS011;59678;52.476;6.046;2022-10-16T02:10:37;2.28;;;1.02;;
43819;SDS011;59678;52.476;6.046;2022-10-16T02:13:14;5.10;;;1.40;;
43819;SDS011;59678;52.476;6.046;2022-10-16T02:15:41;0.77;;;0.60;;
43819;SDS011;59678;52.476;6.046;2022-10-16T02:18:07;0.98;;;0.80;;
43819;SDS011;59678;52.476;6.046;2022-10-16T02:20:34;4.45;;;1.10;;
43819;SDS011;59678;52.476;6.046;2022-10-16T02:23:02;1.48;;;1.00;;
43819;SDS011;59678;52.476;6.046;2022-10-16T02:25:32;2.53;;;0.70;;
43819;SDS011;59678;52.476;6.046;2022-10-16T02:28:07;1.98;;;1.10;;
43819;SDS011;59678;52.476;6.046;2022-10-16T02:30:39;1.33;;;1.02;;
43819;SDS011;59678;52.476;6.046;2022-10-16T02:33:07;1.52;;;0.82;;
43819;SDS011;59678;52.476;6.046;2022-10-16T02:35:34;2.95;;;1.00;;
43819;SDS011;59678;52.476;6.046;2022-10-16T02:38:03;3.42;;;1.20;;
43819;SDS011;59678;52.476;6.046;2022-10-16T02:40:28;2.33;;;1.17;;
43819;SDS011;59678;52.476;6.046;2022-10-16T02:42:54;4.45;;;1.50;;
43819;SDS011;59678;52.476;6.046;2022-10-16T02:45:21;5.68;;;1.30;;
43819;SDS011;59678;52.476;6.046;2022-10-16T02:47:46;1.83;;;1.02;;
43819;SDS011;59678;52.476;6.046;2022-10-16T02:50:12;1.67;;;1.13;;
43819;SDS011;59678;52.476;6.046;2022-10-16T02:52:37;0.63;;;0.52;;
43819;SDS011;59678;52.476;6.046;2022-10-16T02:55:03;2.08;;;1.30;;
43819;SDS011;59678;52.476;6.046;2022-10-16T02:57:31;2.75;;;1.20;;
43819;SDS011;59678;52.476;6.046;2022-10-16T02:59:57;3.90;;;1.13;;
43819;SDS011;59678;52.476;6.046;2022-10-16T03:02:22;4.13;;;1.38;;
43819;SDS011;59678;52.476;6.046;2022-10-16T03:04:48;2.97;;;1.13;;
43819;SDS011;59678;52.476;6.046;2022-10-16T03:07:13;2.63;;;1.40;;
43819;SDS011;59678;52.476;6.046;2022-10-16T03:09:39;2.50;;;1.33;;
43819;SDS011;59678;52.476;6.046;2022-10-16T03:12:05;4.97;;;1.98;;
43819;SDS011;59678;52.476;6.046;2022-10-16T03:14:30;2.22;;;1.30;;
43819;SDS011;59678;52.476;6.046;2022-10-16T03:16:56;3.33;;;1.38;;
43819;SDS011;59678;52.476;6.046;2022-10-16T03:19:21;2.40;;;1.30;;
43819;SDS011;59678;52.476;6.046;2022-10-16T03:21:47;2.10;;;1.30;;
43819;SDS011;59678;52.476;6.046;2022-10-16T03:24:13;2.33;;;1.20;;
43819;SDS011;59678;52.476;6.046;2022-10-16T03:26:39;3.15;;;1.45;;
43819;SDS011;59678;52.476;6.046;2022-10-16T03:29:04;2.92;;;1.25;;
43819;SDS011;59678;52.476;6.046;2022-10-16T03:31:30;2.88;;;1.52;;
43819;SDS011;59678;52.476;6.046;2022-10-16T03:33:56;4.38;;;1.80;;
43819;SDS011;59678;52.476;6.046;2022-10-16T03:36:21;2.60;;;1.40;;
43819;SDS011;59678;52.476;6.046;2022-10-16T03:38:47;3.78;;;1.70;;
43819;SDS011;59678;52.476;6.046;2022-10-16T03:41:13;6.70;;;2.33;;
43819;SDS011;59678;52.476;6.046;2022-10-16T03:43:38;4.00;;;1.42;;
43819;SDS011;59678;52.476;6.046;2022-10-16T03:46:04;4.60;;;1.80;;
43819;SDS011;59678;52.476;6.046;2022-10-16T03:48:29;6.07;;;2.08;;
43819;SDS011;59678;52.476;6.046;2022-10-16T03:50:55;1.90;;;1.25;;
43819;SDS011;59678;52.476;6.046;2022-10-16T03:53:21;1.25;;;1.10;;
43819;SDS011;59678;52.476;6.046;2022-10-16T03:55:46;2.47;;;1.30;;
43819;SDS011;59678;52.476;6.046;2022-10-16T03:58:12;4.75;;;1.88;;
43819;SDS011;59678;52.476;6.046;2022-10-16T04:00:41;3.30;;;2.10;;
43819;SDS011;59678;52.476;6.046;2022-10-16T04:03:07;3.30;;;1.63;;
43819;SDS011;59678;52.476;6.046;2022-10-16T04:05:34;3.05;;;2.38;;
43819;SDS011;59678;52.476;6.046;2022-10-16T04:07:59;4.00;;;1.63;;
43819;SDS011;59678;52.476;6.046;2022-10-16T04:10:25;3.15;;;2.10;;
43819;SDS011;59678;52.476;6.046;2022-10-16T04:12:50;2.63;;;1.83;;
43819;SDS011;59678;52.476;6.046;2022-10-16T04:15:16;5.50;;;2.25;;
43819;SDS011;59678;52.476;6.046;2022-10-16T04:17:41;3.78;;;1.90;;
43819;SDS011;59678;52.476;6.046;2022-10-16T04:20:07;2.33;;;1.30;;
43819;SDS011;59678;52.476;6.046;2022-10-16T04:22:32;3.78;;;1.88;;
43819;SDS011;59678;52.476;6.046;2022-10-16T04:24:58;3.13;;;1.95;;
43819;SDS011;59678;52.476;6.046;2022-10-16T04:27:23;5.47;;;2.20;;
43819;SDS011;59678;52.476;6.046;2022-10-16T04:29:49;3.72;;;2.00;;
43819;SDS011;59678;52.476;6.046;2022-10-16T04:32:14;5.05;;;1.92;;
43819;SDS011;59678;52.476;6.046;2022-10-16T04:34:41;6.00;;;2.20;;
43819;SDS011;59678;52.476;6.046;2022-10-16T04:37:06;5.63;;;2.30;;
43819;SDS011;59678;52.476;6.046;2022-10-16T04:39:32;2.83;;;1.52;;
43819;SDS011;59678;52.476;6.046;2022-10-16T04:41:57;3.50;;;2.17;;
43819;SDS011;59678;52.476;6.046;2022-10-16T04:44:23;4.15;;;1.98;;
43819;SDS011;59678;52.476;6.046;2022-10-16T04:46:51;3.08;;;1.92;;
43819;SDS011;59678;52.476;6.046;2022-10-16T04:49:17;2.55;;;1.95;;
43819;SDS011;59678;52.476;6.046;2022-10-16T04:51:43;2.90;;;1.13;;
43819;SDS011;59678;52.476;6.046;2022-10-16T04:54:08;4.45;;;2.28;;
43819;SDS011;59678;52.476;6.046;2022-10-16T04:56:34;5.13;;;2.33;;
43819;SDS011;59678;52.476;6.046;2022-10-16T04:59:11;4.45;;;1.60;;
43819;SDS011;59678;52.476;6.046;2022-10-16T05:01:36;2.72;;;1.80;;
43819;SDS011;59678;52.476;6.046;2022-10-16T05:04:02;2.10;;;1.10;;
43819;SDS011;59678;52.476;6.046;2022-10-16T05:06:27;3.17;;;1.92;;
43819;SDS011;59678;52.476;6.046;2022-10-16T05:08:53;2.95;;;1.85;;
43819;SDS011;59678;52.476;6.046;2022-10-16T05:11:18;3.05;;;1.90;;
43819;SDS011;59678;52.476;6.046;2022-10-16T05:13:44;4.82;;;1.92;;
43819;SDS011;59678;52.476;6.046;2022-10-16T05:16:09;3.53;;;1.92;;
43819;SDS011;59678;52.476;6.046;2022-10-16T05:18:35;3.97;;;3.17;;
43819;SDS011;59678;52.476;6.046;2022-10-16T05:21:01;3.47;;;1.77;;
43819;SDS011;59678;52.476;6.046;2022-10-16T05:23:26;1.90;;;1.45;;
43819;SDS011;59678;52.476;6.046;2022-10-16T05:25:55;3.20;;;1.67;;
43819;SDS011;59678;52.476;6.046;2022-10-16T05:28:24;3.45;;;1.50;;
43819;SDS011;59678;52.476;6.046;2022-10-16T05:30:49;3.70;;;1.98;;
43819;SDS011;59678;52.476;6.046;2022-10-16T05:33:15;3.80;;;1.92;;
43819;SDS011;59678;52.476;6.046;2022-10-16T05:35:41;4.80;;;1.42;;
43819;SDS011;59678;52.476;6.046;2022-10-16T05:38:06;3.15;;;1.90;;
43819;SDS011;59678;52.476;6.046;2022-10-16T05:40:32;2.88;;;1.42;;
43819;SDS011;59678;52.476;6.046;2022-10-16T05:42:57;3.33;;;1.10;;
43819;SDS011;59678;52.476;6.046;2022-10-16T05:45:23;3.72;;;1.75;;
43819;SDS011;59678;52.476;6.046;2022-10-16T05:47:49;1.83;;;1.45;;
43819;SDS011;59678;52.476;6.046;2022-10-16T05:50:14;2.33;;;1.42;;
43819;SDS011;59678;52.476;6.046;2022-10-16T05:52:40;5.15;;;1.55;;
43819;SDS011;59678;52.476;6.046;2022-10-16T05:55:05;2.22;;;1.30;;
43819;SDS011;59678;52.476;6.046;2022-10-16T05:57:31;10.40;;;1.70;;
43819;SDS011;59678;52.476;6.046;2022-10-16T05:59:57;2.47;;;1.80;;
43819;SDS011;59678;52.476;6.046;2022-10-16T06:02:23;2.17;;;1.40;;
43819;SDS011;59678;52.476;6.046;2022-10-16T06:04:49;4.53;;;1.25;;
43819;SDS011;59678;52.476;6.046;2022-10-16T06:07:14;2.80;;;1.15;;
43819;SDS011;59678;52.476;6.046;2022-10-16T06:09:40;3.90;;;1.20;;
43819;SDS011;59678;52.476;6.046;2022-10-16T06:12:05;2.45;;;1.83;;
43819;SDS011;59678;52.476;6.046;2022-10-16T06:14:31;2.50;;;1.60;;
43819;SDS011;59678;52.476;6.046;2022-10-16T06:16:57;1.38;;;1.15;;
43819;SDS011;59678;52.476;6.046;2022-10-16T06:19:22;4.13;;;1.83;;
43819;SDS011;59678;52.476;6.046;2022-10-16T06:21:48;4.88;;;1.17;;
43819;SDS011;59678;52.476;6.046;2022-10-16T06:24:13;2.88;;;0.85;;
43819;SDS011;59678;52.476;6.046;2022-10-16T06:26:39;2.28;;;1.27;;
43819;SDS011;59678;52.476;6.046;2022-10-16T06:29:05;7.05;;;1.55;;
43819;SDS011;59678;52.476;6.046;2022-10-16T06:31:31;2.08;;;1.10;;
43819;SDS011;59678;52.476;6.046;2022-10-16T06:33:58;1.33;;;0.80;;
43819;SDS011;59678;52.476;6.046;2022-10-16T06:36:25;3.33;;;1.30;;
43819;SDS011;59678;52.476;6.046;2022-10-16T06:38:51;5.13;;;1.50;;
43819;SDS011;59678;52.476;6.046;2022-10-16T06:41:18;2.08;;;1.30;;
43819;SDS011;59678;52.476;6.046;2022-10-16T06:43:43;1.48;;;1.05;;
43819;SDS011;59678;52.476;6.046;2022-10-16T06:46:12;4.15;;;1.70;;
43819;SDS011;59678;52.476;6.046;2022-10-16T06:48:37;3.70;;;0.85;;
43819;SDS011;59678;52.476;6.046;2022-10-16T06:51:14;3.15;;;1.27;;
43819;SDS011;59678;52.476;6.046;2022-10-16T06:53:41;1.98;;;1.02;;
43819;SDS011;59678;52.476;6.046;2022-10-16T06:58:33;2.92;;;1.45;;
43819;SDS011;59678;52.476;6.046;2022-10-16T07:00:59;8.05;;;1.83;;
43819;SDS011;59678;52.476;6.046;2022-10-16T07:03:24;1.85;;;0.95;;
43819;SDS011;59678;52.476;6.046;2022-10-16T07:05:51;2.15;;;1.00;;
43819;SDS011;59678;52.476;6.046;2022-10-16T07:08:16;1.73;;;1.45;;
43819;SDS011;59678;52.476;6.046;2022-10-16T07:10:42;3.55;;;1.58;;
43819;SDS011;59678;52.476;6.046;2022-10-16T07:13:08;6.45;;;3.03;;
43819;SDS011;59678;52.476;6.046;2022-10-16T07:15:33;2.55;;;2.35;;
43819;SDS011;59678;52.476;6.046;2022-10-16T07:17:59;5.90;;;5.32;;
43819;SDS011;59678;52.476;6.046;2022-10-16T07:20:25;6.15;;;4.53;;
43819;SDS011;59678;52.476;6.046;2022-10-16T07:22:51;4.72;;;3.83;;
43819;SDS011;59678;52.476;6.046;2022-10-16T07:25:17;3.67;;;3.47;;
43819;SDS011;59678;52.476;6.046;2022-10-16T07:27:43;4.07;;;3.67;;
43819;SDS011;59678;52.476;6.046;2022-10-16T07:30:08;4.20;;;3.40;;
43819;SDS011;59678;52.476;6.046;2022-10-16T07:32:35;5.63;;;4.95;;
43819;SDS011;59678;52.476;6.046;2022-10-16T07:35:00;5.95;;;5.45;;
43819;SDS011;59678;52.476;6.046;2022-10-16T07:37:27;4.57;;;4.15;;
43819;SDS011;59678;52.476;6.046;2022-10-16T07:39:52;5.57;;;4.38;;
43819;SDS011;59678;52.476;6.046;2022-10-16T07:42:18;3.72;;;3.30;;
43819;SDS011;59678;52.476;6.046;2022-10-16T07:44:45;4.00;;;3.60;;
43819;SDS011;59678;52.476;6.046;2022-10-16T07:47:11;3.42;;;3.00;;
43819;SDS011;59678;52.476;6.046;2022-10-16T07:49:36;6.05;;;3.38;;
43819;SDS011;59678;52.476;6.046;2022-10-16T07:52:02;5.80;;;3.38;;
43819;SDS011;59678;52.476;6.046;2022-10-16T07:54:28;6.63;;;3.22;;
43819;SDS011;59678;52.476;6.046;2022-10-16T07:56:54;3.92;;;3.38;;
43819;SDS011;59678;52.476;6.046;2022-10-16T07:59:19;5.80;;;3.88;;
43819;SDS011;59678;52.476;6.046;2022-10-16T08:01:45;3.58;;;2.05;;
43819;SDS011;59678;52.476;6.046;2022-10-16T08:04:11;8.13;;;2.67;;
43819;SDS011;59678;52.476;6.046;2022-10-16T08:06:38;3.55;;;2.08;;
43819;SDS011;59678;52.476;6.046;2022-10-16T08:09:04;2.45;;;1.40;;
43819;SDS011;59678;52.476;6.046;2022-10-16T08:11:30;6.57;;;2.35;;
43819;SDS011;59678;52.476;6.046;2022-10-16T08:13:56;4.95;;;1.90;;
43819;SDS011;59678;52.476;6.046;2022-10-16T08:16:22;2.97;;;2.25;;
43819;SDS011;59678;52.476;6.046;2022-10-16T08:18:48;6.85;;;1.80;;
43819;SDS011;59678;52.476;6.046;2022-10-16T08:21:18;1.20;;;0.90;;
43819;SDS011;59678;52.476;6.046;2022-10-16T08:23:44;7.28;;;1.48;;
43819;SDS011;59678;52.476;6.046;2022-10-16T08:26:14;2.13;;;1.30;;
43819;SDS011;59678;52.476;6.046;2022-10-16T08:28:40;5.22;;;2.45;;
43819;SDS011;59678;52.476;6.046;2022-10-16T08:33:32;3.67;;;1.88;;
43819;SDS011;59678;52.476;6.046;2022-10-16T08:36:00;7.28;;;1.30;;
43819;SDS011;59678;52.476;6.046;2022-10-16T08:38:26;6.60;;;1.30;;
43819;SDS011;59678;52.476;6.046;2022-10-16T08:40:52;4.40;;;1.60;;
43819;SDS011;59678;52.476;6.046;2022-10-16T08:48:44;4.72;;;1.20;;
43819;SDS011;59678;52.476;6.046;2022-10-16T08:51:10;2.80;;;1.77;;
43819;SDS011;59678;52.476;6.046;2022-10-16T08:53:42;6.93;;;1.20;;
43819;SDS011;59678;52.476;6.046;2022-10-16T08:56:09;3.03;;;1.05;;
43819;SDS011;59678;52.476;6.046;2022-10-16T08:58:34;2.30;;;1.05;;
43819;SDS011;59678;52.476;6.046;2022-10-16T09:01:01;5.60;;;0.82;;
43819;SDS011;59678;52.476;6.046;2022-10-16T09:05:56;3.42;;;1.00;;
43819;SDS011;59678;52.476;6.046;2022-10-16T09:10:56;2.97;;;1.00;;
43819;SDS011;59678;52.476;6.046;2022-10-16T09:13:26;6.28;;;1.20;;
43819;SDS011;59678;52.476;6.046;2022-10-16T09:19:10;6.72;;;1.27;;
43819;SDS011;59678;52.476;6.046;2022-10-16T09:21:40;4.05;;;1.13;;
43819;SDS011;59678;52.476;6.046;2022-10-16T09:26:39;3.83;;;1.30;;
43819;SDS011;59678;52.476;6.046;2022-10-16T09:29:05;2.88;;;1.02;;
43819;SDS011;59678;52.476;6.046;2022-10-16T09:31:30;4.30;;;1.52;;
43819;SDS011;59678;52.476;6.046;2022-10-16T09:34:00;2.17;;;1.17;;
43819;SDS011;59678;52.476;6.046;2022-10-16T09:36:29;4.20;;;1.23;;
43819;SDS011;59678;52.476;6.046;2022-10-16T09:39:01;8.13;;;1.20;;
43819;SDS011;59678;52.476;6.046;2022-10-16T09:41:27;5.32;;;1.95;;
43819;SDS011;59678;52.476;6.046;2022-10-16T09:43:54;5.40;;;1.52;;
43819;SDS011;59678;52.476;6.046;2022-10-16T09:46:28;5.55;;;1.38;;
43819;SDS011;59678;52.476;6.046;2022-10-16T09:48:59;5.20;;;1.05;;
43819;SDS011;59678;52.476;6.046;2022-10-16T09:51:32;6.97;;;2.22;;
43819;SDS011;59678;52.476;6.046;2022-10-16T09:54:02;5.78;;;1.30;;
43819;SDS011;59678;52.476;6.046;2022-10-16T09:56:31;5.38;;;0.90;;
43819;SDS011;59678;52.476;6.046;2022-10-16T09:59:23;2.90;;;0.85;;
43819;SDS011;59678;52.476;6.046;2022-10-16T10:01:54;6.93;;;1.42;;
43819;SDS011;59678;52.476;6.046;2022-10-16T10:04:21;3.53;;;1.75;;
43819;SDS011;59678;52.476;6.046;2022-10-16T10:06:48;5.38;;;1.40;;
43819;SDS011;59678;52.476;6.046;2022-10-16T10:09:23;8.48;;;1.35;;
43819;SDS011;59678;52.476;6.046;2022-10-16T10:11:57;1.80;;;1.02;;
43819;SDS011;59678;52.476;6.046;2022-10-16T10:14:30;7.43;;;1.25;;
43819;SDS011;59678;52.476;6.046;2022-10-16T10:19:26;6.65;;;1.42;;
43819;SDS011;59678;52.476;6.046;2022-10-16T10:21:53;4.85;;;1.27;;
43819;SDS011;59678;52.476;6.046;2022-10-16T10:24:19;5.28;;;1.52;;
43819;SDS011;59678;52.476;6.046;2022-10-16T10:26:49;4.38;;;1.10;;
43819;SDS011;59678;52.476;6.046;2022-10-16T10:37:28;8.63;;;1.77;;
43819;SDS011;59678;52.476;6.046;2022-10-16T10:42:43;3.28;;;1.20;;
43819;SDS011;59678;52.476;6.046;2022-10-16T10:46:02;7.85;;;1.73;;
43819;SDS011;59678;52.476;6.046;2022-10-16T10:50:49;9.15;;;2.05;;
43819;SDS011;59678;52.476;6.046;2022-10-16T10:53:53;10.73;;;1.15;;
43819;SDS011;59678;52.476;6.046;2022-10-16T10:57:02;5.45;;;1.17;;
43819;SDS011;59678;52.476;6.046;2022-10-16T11:11:40;6.43;;;1.50;;
43819;SDS011;59678;52.476;6.046;2022-10-16T11:17:08;11.27;;;1.63;;
43819;SDS011;59678;52.476;6.046;2022-10-16T11:19:45;6.72;;;1.40;;
43819;SDS011;59678;52.476;6.046;2022-10-16T11:22:27;7.28;;;1.48;;
43819;SDS011;59678;52.476;6.046;2022-10-16T11:24:57;4.75;;;1.15;;
43819;SDS011;59678;52.476;6.046;2022-10-16T11:27:36;7.63;;;1.77;;
43819;SDS011;59678;52.476;6.046;2022-10-16T11:30:03;2.53;;;1.40;;
43819;SDS011;59678;52.476;6.046;2022-10-16T11:32:32;3.17;;;0.88;;
43819;SDS011;59678;52.476;6.046;2022-10-16T11:35:00;4.03;;;1.00;;
43819;SDS011;59678;52.476;6.046;2022-10-16T11:37:32;5.90;;;2.08;;
43819;SDS011;59678;52.476;6.046;2022-10-16T11:40:03;10.70;;;1.98;;
43819;SDS011;59678;52.476;6.046;2022-10-16T11:42:32;4.53;;;0.95;;
43819;SDS011;59678;52.476;6.046;2022-10-16T11:45:08;5.32;;;1.08;;
43819;SDS011;59678;52.476;6.046;2022-10-16T11:47:41;9.50;;;1.42;;
43819;SDS011;59678;52.476;6.046;2022-10-16T11:52:45;9.52;;;1.50;;
43819;SDS011;59678;52.476;6.046;2022-10-16T11:55:20;7.53;;;1.17;;
43819;SDS011;59678;52.476;6.046;2022-10-16T11:57:47;3.35;;;1.33;;
43819;SDS011;59678;52.476;6.046;2022-10-16T12:08:02;8.43;;;1.30;;
43819;SDS011;59678;52.476;6.046;2022-10-16T12:10:29;5.85;;;1.20;;
43819;SDS011;59678;52.476;6.046;2022-10-16T12:12:57;4.30;;;1.10;;
43819;SDS011;59678;52.476;6.046;2022-10-16T12:15:30;3.80;;;1.48;;
43819;SDS011;59678;52.476;6.046;2022-10-16T12:17:57;4.53;;;1.92;;
43819;SDS011;59678;52.476;6.046;2022-10-16T12:20:24;7.88;;;1.23;;
43819;SDS011;59678;52.476;6.046;2022-10-16T12:22:55;5.72;;;1.23;;
43819;SDS011;59678;52.476;6.046;2022-10-16T12:25:23;3.00;;;0.90;;
43819;SDS011;59678;52.476;6.046;2022-10-16T12:27:53;1.65;;;0.82;;
43819;SDS011;59678;52.476;6.046;2022-10-16T12:30:23;2.70;;;0.80;;
43819;SDS011;59678;52.476;6.046;2022-10-16T12:32:53;3.53;;;0.70;;
43819;SDS011;59678;52.476;6.046;2022-10-16T12:35:28;3.47;;;1.25;;
43819;SDS011;59678;52.476;6.046;2022-10-16T12:38:03;2.97;;;1.00;;
43819;SDS011;59678;52.476;6.046;2022-10-16T12:40:31;7.32;;;1.50;;
43819;SDS011;59678;52.476;6.046;2022-10-16T12:42:58;7.47;;;1.75;;
43819;SDS011;59678;52.476;6.046;2022-10-16T12:45:33;5.68;;;1.10;;
43819;SDS011;59678;52.476;6.046;2022-10-16T12:48:00;6.25;;;1.80;;
43819;SDS011;59678;52.476;6.046;2022-10-16T12:50:27;7.22;;;1.73;;
43819;SDS011;59678;52.476;6.046;2022-10-16T12:52:53;5.82;;;1.27;;
43819;SDS011;59678;52.476;6.046;2022-10-16T12:55:20;4.75;;;1.05;;
43819;SDS011;59678;52.476;6.046;2022-10-16T13:00:32;8.00;;;1.83;;
43819;SDS011;59678;52.476;6.046;2022-10-16T13:06:02;10.30;;;1.92;;
43819;SDS011;59678;52.476;6.046;2022-10-16T13:21:38;5.70;;;2.00;;
43819;SDS011;59678;52.476;6.046;2022-10-16T13:26:52;12.83;;;3.33;;
43819;SDS011;59678;52.476;6.046;2022-10-16T13:29:21;10.60;;;1.50;;
43819;SDS011;59678;52.476;6.046;2022-10-16T13:31:49;2.92;;;0.90;;
43819;SDS011;59678;52.476;6.046;2022-10-16T13:34:19;6.07;;;1.38;;
43819;SDS011;59678;52.476;6.046;2022-10-16T13:36:47;3.60;;;1.13;;
43819;SDS011;59678;52.476;6.046;2022-10-16T13:39:23;2.22;;;0.70;;
43819;SDS011;59678;52.476;6.046;2022-10-16T13:42:03;5.60;;;0.98;;
43819;SDS011;59678;52.476;6.046;2022-10-16T13:44:31;6.97;;;1.38;;
43819;SDS011;59678;52.476;6.046;2022-10-16T13:47:00;5.28;;;1.00;;
43819;SDS011;59678;52.476;6.046;2022-10-16T13:49:26;5.38;;;1.17;;
43819;SDS011;59678;52.476;6.046;2022-10-16T13:51:55;2.00;;;0.88;;
43819;SDS011;59678;52.476;6.046;2022-10-16T13:54:22;3.97;;;1.45;;
43819;SDS011;59678;52.476;6.046;2022-10-16T13:56:47;3.67;;;1.33;;
43819;SDS011;59678;52.476;6.046;2022-10-16T13:59:26;2.25;;;0.80;;
43819;SDS011;59678;52.476;6.046;2022-10-16T14:01:54;6.90;;;1.15;;
43819;SDS011;59678;52.476;6.046;2022-10-16T14:04:21;8.45;;;1.58;;
43819;SDS011;59678;52.476;6.046;2022-10-16T14:06:49;5.35;;;1.25;;
43819;SDS011;59678;52.476;6.046;2022-10-16T14:09:25;4.75;;;1.20;;
43819;SDS011;59678;52.476;6.046;2022-10-16T14:14:20;6.18;;;2.13;;
43819;SDS011;59678;52.476;6.046;2022-10-16T14:16:47;7.95;;;1.73;;
43819;SDS011;59678;52.476;6.046;2022-10-16T14:19:24;1.88;;;0.80;;
43819;SDS011;59678;52.476;6.046;2022-10-16T14:21:51;6.38;;;1.17;;
43819;SDS011;59678;52.476;6.046;2022-10-16T14:24:24;4.80;;;1.00;;
43819;SDS011;59678;52.476;6.046;2022-10-16T14:26:50;8.83;;;1.77;;
43819;SDS011;59678;52.476;6.046;2022-10-16T14:29:18;2.83;;;0.90;;
43819;SDS011;59678;52.476;6.046;2022-10-16T14:32:03;6.68;;;1.73;;
43819;SDS011;59678;52.476;6.046;2022-10-16T14:36:55;5.68;;;2.13;;
43819;SDS011;59678;52.476;6.046;2022-10-16T14:39:22;8.55;;;2.10;;
43819;SDS011;59678;52.476;6.046;2022-10-16T14:41:50;8.45;;;2.20;;
43819;SDS011;59678;52.476;6.046;2022-10-16T14:44:26;5.53;;;1.25;;
43819;SDS011;59678;52.476;6.046;2022-10-16T14:46:53;5.70;;;1.25;;
43819;SDS011;59678;52.476;6.046;2022-10-16T14:49:19;5.85;;;1.25;;
43819;SDS011;59678;52.476;6.046;2022-10-16T14:51:46;5.47;;;1.20;;
43819;SDS011;59678;52.476;6.046;2022-10-16T14:54:12;7.85;;;1.50;;
43819;SDS011;59678;52.476;6.046;2022-10-16T14:56:43;8.30;;;1.67;;
43819;SDS011;59678;52.476;6.046;2022-10-16T14:59:13;12.75;;;2.60;;
43819;SDS011;59678;52.476;6.046;2022-10-16T15:01:40;7.32;;;1.45;;
43819;SDS011;59678;52.476;6.046;2022-10-16T15:04:07;7.90;;;1.55;;
43819;SDS011;59678;52.476;6.046;2022-10-16T15:06:33;8.35;;;1.58;;
43819;SDS011;59678;52.476;6.046;2022-10-16T15:08:58;6.18;;;1.30;;
43819;SDS011;59678;52.476;6.046;2022-10-16T15:11:24;5.32;;;1.40;;
43819;SDS011;59678;52.476;6.046;2022-10-16T15:13:50;9.13;;;1.42;;
43819;SDS011;59678;52.476;6.046;2022-10-16T15:16:16;9.25;;;1.77;;
43819;SDS011;59678;52.476;6.046;2022-10-16T15:18:42;8.63;;;1.80;;
43819;SDS011;59678;52.476;6.046;2022-10-16T15:21:08;4.13;;;1.25;;
43819;SDS011;59678;52.476;6.046;2022-10-16T15:23:37;7.32;;;2.08;;
43819;SDS011;59678;52.476;6.046;2022-10-16T15:26:04;7.50;;;2.13;;
43819;SDS011;59678;52.476;6.046;2022-10-16T15:28:29;4.88;;;1.90;;
43819;SDS011;59678;52.476;6.046;2022-10-16T15:30:56;9.73;;;1.70;;
43819;SDS011;59678;52.476;6.046;2022-10-16T15:33:23;9.45;;;2.30;;
43819;SDS011;59678;52.476;6.046;2022-10-16T15:35:50;5.43;;;2.13;;
43819;SDS011;59678;52.476;6.046;2022-10-16T15:38:16;4.90;;;1.65;;
43819;SDS011;59678;52.476;6.046;2022-10-16T15:40:43;6.68;;;1.33;;
43819;SDS011;59678;52.476;6.046;2022-10-16T15:43:08;8.02;;;1.70;;
43819;SDS011;59678;52.476;6.046;2022-10-16T15:45:35;6.28;;;1.67;;
43819;SDS011;59678;52.476;6.046;2022-10-16T15:48:00;8.85;;;2.20;;
43819;SDS011;59678;52.476;6.046;2022-10-16T15:50:26;7.10;;;1.60;;
43819;SDS011;59678;52.476;6.046;2022-10-16T15:52:52;6.03;;;1.42;;
43819;SDS011;59678;52.476;6.046;2022-10-16T15:55:18;6.50;;;1.98;;
43819;SDS011;59678;52.476;6.046;2022-10-16T15:57:44;9.35;;;1.90;;
43819;SDS011;59678;52.476;6.046;2022-10-16T16:00:14;7.95;;;1.60;;
43819;SDS011;59678;52.476;6.046;2022-10-16T16:02:41;6.30;;;1.30;;
43819;SDS011;59678;52.476;6.046;2022-10-16T16:05:10;6.75;;;1.52;;
43819;SDS011;59678;52.476;6.046;2022-10-16T16:07:41;8.35;;;1.75;;
43819;SDS011;59678;52.476;6.046;2022-10-16T16:10:58;6.63;;;2.17;;
43819;SDS011;59678;52.476;6.046;2022-10-16T16:14:14;8.07;;;2.25;;
43819;SDS011;59678;52.476;6.046;2022-10-16T16:17:30;8.60;;;2.45;;
43819;SDS011;59678;52.476;6.046;2022-10-16T16:23:19;10.85;;;1.80;;
43819;SDS011;59678;52.476;6.046;2022-10-16T16:26:01;6.70;;;1.77;;
43819;SDS011;59678;52.476;6.046;2022-10-16T16:28:28;10.25;;;2.05;;